sensor_id;sensor_type;location;lat;lon;timestamp;pressure;altitude;pressure_sealevel;temperature;humidity
68141;BME280;54941;52.220;104.306;2023-05-27T00:02:22;96580.97;;;5.49;72.42
68141;BME280;54941;52.220;104.306;2023-05-27T00:04:48;96582.78;;;5.80;71.88
68141;BME280;54941;52.220;104.306;2023-05-27T00:07:14;96590.66;;;6.08;69.96
68141;BME280;54941;52.220;104.306;2023-05-27T00:09:42;96582.81;;;5.94;70.48
68141;BME280;54941;52.220;104.306;2023-05-27T00:12:09;96584.50;;;5.60;71.20
68141;BME280;54941;52.220;104.306;2023-05-27T00:14:35;96575.75;;;5.64;72.14
68141;BME280;54941;52.220;104.306;2023-05-27T00:17:01;96571.44;;;5.97;70.25
68141;BME280;54941;52.220;104.306;2023-05-27T00:19:28;96576.63;;;6.24;69.15
68141;BME280;54941;52.220;104.306;2023-05-27T00:21:54;96567.94;;;6.16;69.96
68141;BME280;54941;52.220;104.306;2023-05-27T00:24:20;96573.13;;;6.36;69.17
68141;BME280;54941;52.220;104.306;2023-05-27T00:26:48;96572.19;;;6.72;67.10
68141;BME280;54941;52.220;104.306;2023-05-27T00:29:16;96573.09;;;6.56;67.36
68141;BME280;54941;52.220;104.306;2023-05-27T00:31:43;96573.97;;;6.55;68.14
68141;BME280;54941;52.220;104.306;2023-05-27T00:34:09;96570.41;;;6.74;68.13
68141;BME280;54941;52.220;104.306;2023-05-27T00:36:35;96571.25;;;6.79;67.56
68141;BME280;54941;52.220;104.306;2023-05-27T00:39:02;96565.84;;;7.14;66.17
68141;BME280;54941;52.220;104.306;2023-05-27T00:41:28;96573.75;;;7.10;66.25
68141;BME280;54941;52.220;104.306;2023-05-27T00:43:56;96576.41;;;7.10;65.25
68141;BME280;54941;52.220;104.306;2023-05-27T00:46:23;96580.78;;;7.03;65.30
68141;BME280;54941;52.220;104.306;2023-05-27T00:48:49;96576.50;;;6.79;66.70
68141;BME280;54941;52.220;104.306;2023-05-27T00:51:16;96573.78;;;7.07;66.17
68141;BME280;54941;52.220;104.306;2023-05-27T00:53:43;96569.91;;;7.67;64.09
68141;BME280;54941;52.220;104.306;2023-05-27T00:56:11;96558.56;;;8.63;60.84
68141;BME280;54941;52.220;104.306;2023-05-27T00:58:38;96563.97;;;8.50;61.10
68141;BME280;54941;52.220;104.306;2023-05-27T01:01:05;96553.19;;;8.72;60.41
68141;BME280;54941;52.220;104.306;2023-05-27T01:03:32;96563.47;;;8.05;62.10
68141;BME280;54941;52.220;104.306;2023-05-27T01:08:56;96567.44;;;7.46;64.55
68141;BME280;54941;52.220;104.306;2023-05-27T01:11:32;96567.84;;;8.06;63.61
68141;BME280;54941;52.220;104.306;2023-05-27T01:14:04;96574.16;;;7.85;63.76
68141;BME280;54941;52.220;104.306;2023-05-27T01:16:37;96573.69;;;8.43;61.58
68141;BME280;54941;52.220;104.306;2023-05-27T01:19:08;96572.41;;;7.84;64.13
68141;BME280;54941;52.220;104.306;2023-05-27T01:21:39;96571.84;;;8.51;62.04
68141;BME280;54941;52.220;104.306;2023-05-27T01:24:08;96577.97;;;8.53;61.97
68141;BME280;54941;52.220;104.306;2023-05-27T01:26:35;96579.78;;;8.48;62.09
68141;BME280;54941;52.220;104.306;2023-05-27T01:29:01;96569.88;;;8.73;60.93
68141;BME280;54941;52.220;104.306;2023-05-27T01:31:31;96571.94;;;9.19;59.45
68141;BME280;54941;52.220;104.306;2023-05-27T01:34:03;96575.34;;;9.28;58.91
68141;BME280;54941;52.220;104.306;2023-05-27T01:36:35;96568.13;;;8.72;60.80
68141;BME280;54941;52.220;104.306;2023-05-27T01:39:03;96557.09;;;9.12;59.35
68141;BME280;54941;52.220;104.306;2023-05-27T01:41:32;96562.84;;;8.72;60.22
68141;BME280;54941;52.220;104.306;2023-05-27T01:44:00;96565.97;;;9.06;59.98
68141;BME280;54941;52.220;104.306;2023-05-27T01:46:27;96574.78;;;9.03;59.51
68141;BME280;54941;52.220;104.306;2023-05-27T01:48:54;96578.00;;;8.50;61.16
68141;BME280;54941;52.220;104.306;2023-05-27T01:51:23;96577.44;;;8.10;61.58
68141;BME280;54941;52.220;104.306;2023-05-27T01:53:52;96582.31;;;9.32;58.46
68141;BME280;54941;52.220;104.306;2023-05-27T01:56:19;96589.28;;;8.63;60.24
68141;BME280;54941;52.220;104.306;2023-05-27T01:58:46;96587.97;;;8.14;62.54
68141;BME280;54941;52.220;104.306;2023-05-27T02:01:13;96591.47;;;9.02;58.95
68141;BME280;54941;52.220;104.306;2023-05-27T02:03:39;96593.50;;;8.77;60.24
68141;BME280;54941;52.220;104.306;2023-05-27T02:06:06;96603.94;;;7.87;62.85
68141;BME280;54941;52.220;104.306;2023-05-27T02:08:32;96604.63;;;8.13;62.59
68141;BME280;54941;52.220;104.306;2023-05-27T02:10:58;96604.56;;;8.23;62.49
68141;BME280;54941;52.220;104.306;2023-05-27T02:13:25;96606.13;;;8.46;61.38
68141;BME280;54941;52.220;104.306;2023-05-27T02:15:53;96609.91;;;8.09;62.40
68141;BME280;54941;52.220;104.306;2023-05-27T02:18:19;96607.16;;;8.27;62.06
68141;BME280;54941;52.220;104.306;2023-05-27T02:20:46;96608.03;;;8.28;61.93
68141;BME280;54941;52.220;104.306;2023-05-27T02:23:15;96609.84;;;8.23;62.38
68141;BME280;54941;52.220;104.306;2023-05-27T02:25:41;96613.16;;;8.46;61.46
68141;BME280;54941;52.220;104.306;2023-05-27T02:28:07;96622.28;;;8.02;62.78
68141;BME280;54941;52.220;104.306;2023-05-27T02:30:34;96612.34;;;8.33;62.06
68141;BME280;54941;52.220;104.306;2023-05-27T02:33:02;96615.31;;;7.92;62.91
68141;BME280;54941;52.220;104.306;2023-05-27T02:35:29;96619.66;;;7.98;62.80
68141;BME280;54941;52.220;104.306;2023-05-27T02:38:05;96623.91;;;8.15;61.94
68141;BME280;54941;52.220;104.306;2023-05-27T02:40:32;96622.09;;;8.25;62.27
68141;BME280;54941;52.220;104.306;2023-05-27T02:42:58;96619.47;;;8.24;61.95
68141;BME280;54941;52.220;104.306;2023-05-27T02:45:25;96622.31;;;7.99;62.91
68141;BME280;54941;52.220;104.306;2023-05-27T02:47:51;96622.22;;;8.08;62.41
68141;BME280;54941;52.220;104.306;2023-05-27T02:50:20;96618.69;;;8.09;62.65
68141;BME280;54941;52.220;104.306;2023-05-27T02:52:46;96622.25;;;8.04;62.86
68141;BME280;54941;52.220;104.306;2023-05-27T02:55:12;96627.63;;;7.85;63.34
68141;BME280;54941;52.220;104.306;2023-05-27T02:57:39;96626.56;;;8.14;62.55
68141;BME280;54941;52.220;104.306;2023-05-27T03:00:06;96619.28;;;8.48;61.09
68141;BME280;54941;52.220;104.306;2023-05-27T03:02:34;96620.63;;;7.87;63.30
68141;BME280;54941;52.220;104.306;2023-05-27T03:05:03;96615.88;;;8.32;61.66
68141;BME280;54941;52.220;104.306;2023-05-27T03:07:33;96617.53;;;8.44;61.36
68141;BME280;54941;52.220;104.306;2023-05-27T03:09:59;96629.31;;;8.00;62.73
68141;BME280;54941;52.220;104.306;2023-05-27T03:12:26;96620.19;;;8.42;61.39
68141;BME280;54941;52.220;104.306;2023-05-27T03:14:52;96614.94;;;8.45;60.97
68141;BME280;54941;52.220;104.306;2023-05-27T03:17:20;96623.56;;;8.60;60.86
68141;BME280;54941;52.220;104.306;2023-05-27T03:19:49;96625.63;;;8.23;61.75
68141;BME280;54941;52.220;104.306;2023-05-27T03:22:16;96626.47;;;8.22;61.41
68141;BME280;54941;52.220;104.306;2023-05-27T03:24:44;96631.00;;;8.07;62.60
68141;BME280;54941;52.220;104.306;2023-05-27T03:27:10;96628.34;;;8.10;62.89
68141;BME280;54941;52.220;104.306;2023-05-27T03:29:37;96630.03;;;8.19;62.77
68141;BME280;54941;52.220;104.306;2023-05-27T03:32:03;96626.72;;;8.91;59.30
68141;BME280;54941;52.220;104.306;2023-05-27T03:34:29;96622.66;;;8.61;60.67
68141;BME280;54941;52.220;104.306;2023-05-27T03:36:56;96629.19;;;8.15;62.44
68141;BME280;54941;52.220;104.306;2023-05-27T03:39:22;96630.22;;;7.95;62.65
68141;BME280;54941;52.220;104.306;2023-05-27T03:41:50;96627.75;;;8.81;60.61
68141;BME280;54941;52.220;104.306;2023-05-27T03:44:16;96627.91;;;8.64;60.86
68141;BME280;54941;52.220;104.306;2023-05-27T03:46:42;96630.50;;;8.65;60.70
68141;BME280;54941;52.220;104.306;2023-05-27T03:49:09;96631.56;;;8.44;60.87
68141;BME280;54941;52.220;104.306;2023-05-27T03:51:35;96630.50;;;8.68;60.80
68141;BME280;54941;52.220;104.306;2023-05-27T03:54:01;96623.94;;;9.06;59.61
68141;BME280;54941;52.220;104.306;2023-05-27T03:56:28;96630.84;;;8.27;61.92
68141;BME280;54941;52.220;104.306;2023-05-27T03:58:56;96624.75;;;9.11;59.19
68141;BME280;54941;52.220;104.306;2023-05-27T04:01:22;96611.50;;;9.17;58.92
68141;BME280;54941;52.220;104.306;2023-05-27T04:03:48;96624.25;;;8.75;60.10
68141;BME280;54941;52.220;104.306;2023-05-27T04:06:15;96620.56;;;8.93;60.03
68141;BME280;54941;52.220;104.306;2023-05-27T04:08:41;96628.03;;;9.31;59.01
68141;BME280;54941;52.220;104.306;2023-05-27T04:11:10;96625.88;;;8.89;59.88
68141;BME280;54941;52.220;104.306;2023-05-27T04:13:37;96623.63;;;9.30;58.85
68141;BME280;54941;52.220;104.306;2023-05-27T04:16:05;96619.81;;;10.13;56.25
68141;BME280;54941;52.220;104.306;2023-05-27T04:18:31;96619.31;;;9.89;56.50
68141;BME280;54941;52.220;104.306;2023-05-27T04:20:57;96612.69;;;10.19;56.11
68141;BME280;54941;52.220;104.306;2023-05-27T04:23:24;96612.06;;;10.58;54.74
68141;BME280;54941;52.220;104.306;2023-05-27T04:25:50;96611.66;;;9.71;56.98
68141;BME280;54941;52.220;104.306;2023-05-27T04:28:16;96614.00;;;9.29;58.96
68141;BME280;54941;52.220;104.306;2023-05-27T04:30:43;96604.78;;;9.61;58.08
68141;BME280;54941;52.220;104.306;2023-05-27T04:33:11;96605.56;;;9.00;60.04
68141;BME280;54941;52.220;104.306;2023-05-27T04:35:37;96601.41;;;8.81;60.29
68141;BME280;54941;52.220;104.306;2023-05-27T04:38:04;96601.06;;;9.74;57.47
68141;BME280;54941;52.220;104.306;2023-05-27T04:40:30;96597.53;;;9.75;57.19
68141;BME280;54941;52.220;104.306;2023-05-27T04:42:56;96595.44;;;9.99;57.26
68141;BME280;54941;52.220;104.306;2023-05-27T04:45:22;96599.66;;;10.09;56.70
68141;BME280;54941;52.220;104.306;2023-05-27T04:47:49;96595.91;;;10.74;54.58
68141;BME280;54941;52.220;104.306;2023-05-27T04:50:17;96589.47;;;10.89;54.25
68141;BME280;54941;52.220;104.306;2023-05-27T04:52:43;96584.59;;;10.14;55.93
68141;BME280;54941;52.220;104.306;2023-05-27T04:55:10;96580.41;;;10.56;54.98
68141;BME280;54941;52.220;104.306;2023-05-27T04:57:36;96574.88;;;10.19;56.14
68141;BME280;54941;52.220;104.306;2023-05-27T05:00:07;96581.41;;;10.49;55.66
68141;BME280;54941;52.220;104.306;2023-05-27T05:02:34;96580.94;;;10.73;55.02
68141;BME280;54941;52.220;104.306;2023-05-27T05:05:01;96577.47;;;10.71;54.55
68141;BME280;54941;52.220;104.306;2023-05-27T05:07:29;96576.66;;;11.13;53.58
68141;BME280;54941;52.220;104.306;2023-05-27T05:09:55;96573.63;;;10.89;54.28
68141;BME280;54941;52.220;104.306;2023-05-27T05:12:22;96570.28;;;11.21;53.23
68141;BME280;54941;52.220;104.306;2023-05-27T05:14:48;96566.44;;;11.37;52.51
68141;BME280;54941;52.220;104.306;2023-05-27T05:17:14;96561.94;;;11.41;52.64
68141;BME280;54941;52.220;104.306;2023-05-27T05:19:41;96562.22;;;11.29;52.50
68141;BME280;54941;52.220;104.306;2023-05-27T05:22:07;96562.25;;;10.84;54.29
68141;BME280;54941;52.220;104.306;2023-05-27T05:24:35;96549.88;;;11.68;52.08
68141;BME280;54941;52.220;104.306;2023-05-27T05:27:01;96556.81;;;11.74;50.83
68141;BME280;54941;52.220;104.306;2023-05-27T05:29:28;96552.97;;;12.24;49.83
68141;BME280;54941;52.220;104.306;2023-05-27T05:31:54;96545.88;;;11.89;50.54
68141;BME280;54941;52.220;104.306;2023-05-27T05:34:20;96547.53;;;11.94;50.84
68141;BME280;54941;52.220;104.306;2023-05-27T05:36:46;96537.75;;;12.32;49.69
68141;BME280;54941;52.220;104.306;2023-05-27T05:39:13;96539.38;;;12.70;48.24
68141;BME280;54941;52.220;104.306;2023-05-27T05:41:41;96541.34;;;12.64;48.33
68141;BME280;54941;52.220;104.306;2023-05-27T05:44:07;96537.03;;;11.90;50.16
68141;BME280;54941;52.220;104.306;2023-05-27T05:46:33;96531.66;;;13.26;47.26
68141;BME280;54941;52.220;104.306;2023-05-27T05:49:00;96534.72;;;12.80;46.72
68141;BME280;54941;52.220;104.306;2023-05-27T05:51:26;96540.97;;;12.09;48.24
68141;BME280;54941;52.220;104.306;2023-05-27T05:53:53;96524.88;;;12.85;47.58
68141;BME280;54941;52.220;104.306;2023-05-27T05:56:19;96531.22;;;12.78;46.90
68141;BME280;54941;52.220;104.306;2023-05-27T05:58:47;96526.16;;;13.01;46.21
68141;BME280;54941;52.220;104.306;2023-05-27T06:01:13;96524.25;;;13.37;45.15
68141;BME280;54941;52.220;104.306;2023-05-27T06:03:40;96517.69;;;13.20;45.18
68141;BME280;54941;52.220;104.306;2023-05-27T06:06:06;96520.66;;;13.38;45.08
68141;BME280;54941;52.220;104.306;2023-05-27T06:08:33;96528.63;;;12.10;47.71
68141;BME280;54941;52.220;104.306;2023-05-27T06:10:59;96523.66;;;12.97;46.22
68141;BME280;54941;52.220;104.306;2023-05-27T06:13:25;96523.63;;;13.28;45.28
68141;BME280;54941;52.220;104.306;2023-05-27T06:15:53;96524.22;;;13.06;46.00
68141;BME280;54941;52.220;104.306;2023-05-27T06:18:19;96523.88;;;13.20;45.56
68141;BME280;54941;52.220;104.306;2023-05-27T06:20:46;96513.59;;;13.95;43.88
68141;BME280;54941;52.220;104.306;2023-05-27T06:23:12;96512.75;;;13.66;44.27
68141;BME280;54941;52.220;104.306;2023-05-27T06:25:38;96516.72;;;13.52;45.52
68141;BME280;54941;52.220;104.306;2023-05-27T06:28:05;96513.16;;;13.81;43.26
68141;BME280;54941;52.220;104.306;2023-05-27T06:30:32;96511.84;;;13.66;43.79
68141;BME280;54941;52.220;104.306;2023-05-27T06:33:00;96509.66;;;14.07;42.53
68141;BME280;54941;52.220;104.306;2023-05-27T06:35:26;96503.81;;;13.95;43.05
68141;BME280;54941;52.220;104.306;2023-05-27T06:37:52;96512.47;;;12.85;45.17
68141;BME280;54941;52.220;104.306;2023-05-27T06:40:19;96504.75;;;13.38;44.37
68141;BME280;54941;52.220;104.306;2023-05-27T06:42:46;96507.72;;;12.97;45.18
68141;BME280;54941;52.220;104.306;2023-05-27T06:45:12;96491.13;;;13.21;44.67
68141;BME280;54941;52.220;104.306;2023-05-27T06:47:39;96498.66;;;14.17;42.02
68141;BME280;54941;52.220;104.306;2023-05-27T06:50:07;96499.59;;;13.90;42.08
68141;BME280;54941;52.220;104.306;2023-05-27T06:52:34;96490.22;;;13.50;42.91
68141;BME280;54941;52.220;104.306;2023-05-27T06:55:01;96482.31;;;13.49;42.73
68141;BME280;54941;52.220;104.306;2023-05-27T06:57:28;96487.41;;;12.96;44.56
68141;BME280;54941;52.220;104.306;2023-05-27T06:59:55;96486.88;;;13.14;42.59
68141;BME280;54941;52.220;104.306;2023-05-27T07:02:21;96480.31;;;13.27;43.17
68141;BME280;54941;52.220;104.306;2023-05-27T07:04:48;96473.66;;;13.42;42.51
68141;BME280;54941;52.220;104.306;2023-05-27T07:07:20;96472.91;;;13.66;42.51
68141;BME280;54941;52.220;104.306;2023-05-27T07:09:46;96472.97;;;13.91;41.56
68141;BME280;54941;52.220;104.306;2023-05-27T07:12:13;96462.53;;;13.85;41.38
68141;BME280;54941;52.220;104.306;2023-05-27T07:14:39;96468.75;;;13.58;42.23
68141;BME280;54941;52.220;104.306;2023-05-27T07:17:05;96455.59;;;13.81;41.99
68141;BME280;54941;52.220;104.306;2023-05-27T07:19:32;96455.72;;;13.78;41.86
68141;BME280;54941;52.220;104.306;2023-05-27T07:21:58;96465.25;;;14.37;40.29
68141;BME280;54941;52.220;104.306;2023-05-27T07:24:26;96461.53;;;13.89;40.63
68141;BME280;54941;52.220;104.306;2023-05-27T07:26:52;96457.34;;;13.54;41.28
68141;BME280;54941;52.220;104.306;2023-05-27T07:29:18;96454.13;;;13.99;40.17
68141;BME280;54941;52.220;104.306;2023-05-27T07:31:45;96455.50;;;13.58;41.07
68141;BME280;54941;52.220;104.306;2023-05-27T07:34:12;96454.00;;;13.20;41.82
68141;BME280;54941;52.220;104.306;2023-05-27T07:36:38;96456.00;;;13.41;41.86
68141;BME280;54941;52.220;104.306;2023-05-27T07:39:04;96459.38;;;13.17;40.10
68141;BME280;54941;52.220;104.306;2023-05-27T07:41:32;96459.19;;;12.93;41.04
68141;BME280;54941;52.220;104.306;2023-05-27T07:44:00;96447.47;;;13.02;41.69
68141;BME280;54941;52.220;104.306;2023-05-27T07:46:29;96453.81;;;13.55;40.99
68141;BME280;54941;52.220;104.306;2023-05-27T07:49:08;96450.91;;;13.35;41.04
68141;BME280;54941;52.220;104.306;2023-05-27T07:51:34;96450.91;;;13.35;41.58
68141;BME280;54941;52.220;104.306;2023-05-27T07:54:00;96445.91;;;14.07;39.45
68141;BME280;54941;52.220;104.306;2023-05-27T07:56:27;96443.50;;;14.25;37.96
68141;BME280;54941;52.220;104.306;2023-05-27T07:58:54;96440.84;;;13.72;39.41
68141;BME280;54941;52.220;104.306;2023-05-27T08:01:21;96439.78;;;13.50;39.67
68141;BME280;54941;52.220;104.306;2023-05-27T08:03:47;96439.44;;;13.61;39.54
68141;BME280;54941;52.220;104.306;2023-05-27T08:06:14;96439.91;;;14.00;38.58
68141;BME280;54941;52.220;104.306;2023-05-27T08:08:40;96430.31;;;13.96;39.07
68141;BME280;54941;52.220;104.306;2023-05-27T08:11:07;96436.53;;;14.21;38.38
68141;BME280;54941;52.220;104.306;2023-05-27T08:13:33;96437.81;;;14.10;38.12
68141;BME280;54941;52.220;104.306;2023-05-27T08:16:01;96441.16;;;14.41;37.73
68141;BME280;54941;52.220;104.306;2023-05-27T08:18:27;96437.22;;;14.01;38.99
68141;BME280;54941;52.220;104.306;2023-05-27T08:20:53;96438.75;;;14.09;38.28
68141;BME280;54941;52.220;104.306;2023-05-27T08:23:20;96433.44;;;14.58;37.55
68141;BME280;54941;52.220;104.306;2023-05-27T08:25:47;96432.47;;;14.36;37.69
68141;BME280;54941;52.220;104.306;2023-05-27T08:28:14;96432.88;;;14.50;37.63
68141;BME280;54941;52.220;104.306;2023-05-27T08:30:41;96429.03;;;14.59;36.86
68141;BME280;54941;52.220;104.306;2023-05-27T08:33:15;96432.19;;;14.94;36.47
68141;BME280;54941;52.220;104.306;2023-05-27T08:35:42;96425.28;;;15.11;35.79
68141;BME280;54941;52.220;104.306;2023-05-27T08:38:08;96431.66;;;13.83;37.53
68141;BME280;54941;52.220;104.306;2023-05-27T08:40:35;96424.09;;;13.97;37.93
68141;BME280;54941;52.220;104.306;2023-05-27T08:43:07;96418.66;;;14.26;36.49
68141;BME280;54941;52.220;104.306;2023-05-27T08:45:48;96421.72;;;13.89;37.23
68141;BME280;54941;52.220;104.306;2023-05-27T08:48:17;96411.16;;;13.86;37.91
68141;BME280;54941;52.220;104.306;2023-05-27T08:50:47;96411.38;;;14.80;36.34
68141;BME280;54941;52.220;104.306;2023-05-27T08:53:20;96411.50;;;14.77;36.87
68141;BME280;54941;52.220;104.306;2023-05-27T08:55:50;96411.81;;;14.44;38.13
68141;BME280;54941;52.220;104.306;2023-05-27T08:58:18;96411.31;;;14.33;38.19
68141;BME280;54941;52.220;104.306;2023-05-27T09:00:45;96412.53;;;14.49;36.93
68141;BME280;54941;52.220;104.306;2023-05-27T09:03:25;96413.09;;;14.32;37.36
68141;BME280;54941;52.220;104.306;2023-05-27T09:05:52;96428.25;;;13.79;38.09
68141;BME280;54941;52.220;104.306;2023-05-27T09:08:18;96418.91;;;13.67;38.96
68141;BME280;54941;52.220;104.306;2023-05-27T09:10:44;96414.75;;;13.59;39.42
68141;BME280;54941;52.220;104.306;2023-05-27T09:13:11;96418.44;;;13.81;38.29
68141;BME280;54941;52.220;104.306;2023-05-27T09:15:37;96418.53;;;13.24;39.27
68141;BME280;54941;52.220;104.306;2023-05-27T09:18:05;96424.59;;;12.98;39.99
68141;BME280;54941;52.220;104.306;2023-05-27T09:20:33;96420.28;;;13.51;39.02
68141;BME280;54941;52.220;104.306;2023-05-27T09:23:01;96423.31;;;13.11;39.62
68141;BME280;54941;52.220;104.306;2023-05-27T09:25:28;96422.34;;;12.84;40.48
68141;BME280;54941;52.220;104.306;2023-05-27T09:27:55;96421.84;;;13.30;39.81
68141;BME280;54941;52.220;104.306;2023-05-27T09:30:22;96428.13;;;13.28;39.52
68141;BME280;54941;52.220;104.306;2023-05-27T09:32:49;96430.50;;;13.37;39.26
68141;BME280;54941;52.220;104.306;2023-05-27T09:35:16;96420.66;;;13.11;39.41
68141;BME280;54941;52.220;104.306;2023-05-27T09:37:44;96427.09;;;13.02;39.64
68141;BME280;54941;52.220;104.306;2023-05-27T09:40:12;96423.41;;;13.37;38.57
68141;BME280;54941;52.220;104.306;2023-05-27T09:42:39;96413.94;;;13.29;38.16
68141;BME280;54941;52.220;104.306;2023-05-27T09:45:07;96414.56;;;13.37;38.57
68141;BME280;54941;52.220;104.306;2023-05-27T09:47:34;96409.78;;;13.48;38.17
68141;BME280;54941;52.220;104.306;2023-05-27T09:50:00;96405.63;;;13.11;37.67
68141;BME280;54941;52.220;104.306;2023-05-27T09:52:31;96411.50;;;13.23;37.63
68141;BME280;54941;52.220;104.306;2023-05-27T09:54:59;96408.84;;;13.23;37.02
68141;BME280;54941;52.220;104.306;2023-05-27T09:57:26;96410.25;;;13.61;36.79
68141;BME280;54941;52.220;104.306;2023-05-27T09:59:55;96409.72;;;13.76;36.13
68141;BME280;54941;52.220;104.306;2023-05-27T10:02:26;96407.09;;;13.76;35.14
68141;BME280;54941;52.220;104.306;2023-05-27T10:04:54;96403.09;;;13.63;34.83
68141;BME280;54941;52.220;104.306;2023-05-27T10:07:23;96402.28;;;13.34;35.13
68141;BME280;54941;52.220;104.306;2023-05-27T10:09:49;96397.19;;;13.55;35.12
68141;BME280;54941;52.220;104.306;2023-05-27T10:12:17;96405.22;;;13.80;34.04
68141;BME280;54941;52.220;104.306;2023-05-27T10:14:44;96414.59;;;13.90;33.32
68141;BME280;54941;52.220;104.306;2023-05-27T10:17:10;96411.47;;;13.77;33.64
68141;BME280;54941;52.220;104.306;2023-05-27T10:19:37;96398.63;;;13.91;33.63
68141;BME280;54941;52.220;104.306;2023-05-27T10:22:10;96400.59;;;13.85;34.11
68141;BME280;54941;52.220;104.306;2023-05-27T10:24:39;96409.28;;;13.63;33.87
68141;BME280;54941;52.220;104.306;2023-05-27T10:27:05;96410.94;;;13.67;36.85
68141;BME280;54941;52.220;104.306;2023-05-27T10:29:37;96406.09;;;13.52;37.46
68141;BME280;54941;52.220;104.306;2023-05-27T10:32:04;96410.84;;;13.42;38.49
68141;BME280;54941;52.220;104.306;2023-05-27T10:34:34;96415.19;;;13.45;38.65
68141;BME280;54941;52.220;104.306;2023-05-27T10:37:00;96410.47;;;13.55;38.03
68141;BME280;54941;52.220;104.306;2023-05-27T10:39:27;96414.28;;;13.46;38.21
68141;BME280;54941;52.220;104.306;2023-05-27T10:41:54;96414.22;;;13.48;37.01
68141;BME280;54941;52.220;104.306;2023-05-27T10:44:29;96415.97;;;13.49;34.92
68141;BME280;54941;52.220;104.306;2023-05-27T10:47:09;96424.22;;;13.66;33.60
68141;BME280;54941;52.220;104.306;2023-05-27T10:49:39;96423.22;;;13.43;33.65
68141;BME280;54941;52.220;104.306;2023-05-27T10:52:06;96425.22;;;13.35;32.64
68141;BME280;54941;52.220;104.306;2023-05-27T10:54:34;96429.19;;;13.50;33.13
68141;BME280;54941;52.220;104.306;2023-05-27T10:57:02;96433.31;;;13.32;32.92
68141;BME280;54941;52.220;104.306;2023-05-27T10:59:38;96424.03;;;13.16;32.65
68141;BME280;54941;52.220;104.306;2023-05-27T11:02:07;96433.84;;;13.43;33.09
68141;BME280;54941;52.220;104.306;2023-05-27T11:04:34;96429.59;;;13.64;32.46
68141;BME280;54941;52.220;104.306;2023-05-27T11:07:01;96431.53;;;13.59;32.69
68141;BME280;54941;52.220;104.306;2023-05-27T11:09:27;96426.88;;;13.39;32.58
68141;BME280;54941;52.220;104.306;2023-05-27T11:11:55;96427.88;;;13.35;32.71
68141;BME280;54941;52.220;104.306;2023-05-27T11:14:22;96427.19;;;13.29;32.96
68141;BME280;54941;52.220;104.306;2023-05-27T11:16:49;96431.91;;;13.21;33.06
68141;BME280;54941;52.220;104.306;2023-05-27T11:19:17;96428.97;;;13.28;33.05
68141;BME280;54941;52.220;104.306;2023-05-27T11:21:47;96431.75;;;13.25;32.60
68141;BME280;54941;52.220;104.306;2023-05-27T11:24:17;96435.28;;;12.95;32.91
68141;BME280;54941;52.220;104.306;2023-05-27T11:26:44;96436.03;;;13.00;33.31
68141;BME280;54941;52.220;104.306;2023-05-27T11:29:11;96438.84;;;12.94;33.30
68141;BME280;54941;52.220;104.306;2023-05-27T11:31:37;96435.97;;;13.01;32.72
68141;BME280;54941;52.220;104.306;2023-05-27T11:34:04;96438.19;;;12.87;33.35
68141;BME280;54941;52.220;104.306;2023-05-27T11:36:31;96439.41;;;12.75;33.21
68141;BME280;54941;52.220;104.306;2023-05-27T11:38:59;96438.03;;;12.92;33.75
68141;BME280;54941;52.220;104.306;2023-05-27T11:41:27;96439.66;;;12.96;34.67
68141;BME280;54941;52.220;104.306;2023-05-27T11:43:55;96444.50;;;12.81;34.13
68141;BME280;54941;52.220;104.306;2023-05-27T11:46:22;96441.75;;;12.84;33.46
68141;BME280;54941;52.220;104.306;2023-05-27T11:48:49;96441.75;;;12.84;35.79
68141;BME280;54941;52.220;104.306;2023-05-27T11:51:15;96446.50;;;12.73;36.62
68141;BME280;54941;52.220;104.306;2023-05-27T11:53:46;96452.34;;;12.55;40.05
68141;BME280;54941;52.220;104.306;2023-05-27T11:56:15;96450.91;;;12.43;40.65
68141;BME280;54941;52.220;104.306;2023-05-27T11:58:41;96452.41;;;12.53;40.71
68141;BME280;54941;52.220;104.306;2023-05-27T12:01:08;96453.66;;;12.40;41.54
68141;BME280;54941;52.220;104.306;2023-05-27T12:03:34;96451.00;;;12.40;41.51
68141;BME280;54941;52.220;104.306;2023-05-27T12:06:01;96449.72;;;12.22;41.01
68141;BME280;54941;52.220;104.306;2023-05-27T12:08:27;96453.31;;;12.20;41.22
68141;BME280;54941;52.220;104.306;2023-05-27T12:10:55;96458.69;;;12.17;41.79
68141;BME280;54941;52.220;104.306;2023-05-27T12:13:21;96459.13;;;12.00;43.29
68141;BME280;54941;52.220;104.306;2023-05-27T12:15:50;96456.59;;;11.95;44.02
68141;BME280;54941;52.220;104.306;2023-05-27T12:18:17;96459.13;;;12.00;43.49
68141;BME280;54941;52.220;104.306;2023-05-27T12:20:44;96465.47;;;12.27;41.87
68141;BME280;54941;52.220;104.306;2023-05-27T12:23:11;96465.00;;;12.11;42.13
68141;BME280;54941;52.220;104.306;2023-05-27T12:25:37;96461.78;;;12.00;41.44
68141;BME280;54941;52.220;104.306;2023-05-27T12:28:06;96460.94;;;11.98;41.41
68141;BME280;54941;52.220;104.306;2023-05-27T12:30:33;96469.94;;;11.91;41.56
68141;BME280;54941;52.220;104.306;2023-05-27T12:32:59;96469.13;;;11.89;41.80
68141;BME280;54941;52.220;104.306;2023-05-27T12:35:26;96469.38;;;11.77;41.92
68141;BME280;54941;52.220;104.306;2023-05-27T12:37:52;96471.38;;;11.67;42.53
68141;BME280;54941;52.220;104.306;2023-05-27T12:40:18;96473.03;;;11.73;41.82
68141;BME280;54941;52.220;104.306;2023-05-27T12:42:46;96476.50;;;11.75;42.32
68141;BME280;54941;52.220;104.306;2023-05-27T12:45:14;96476.09;;;11.54;43.00
68141;BME280;54941;52.220;104.306;2023-05-27T12:47:40;96476.31;;;11.47;42.89